sensor_id;sensor_type;location;lat;lon;timestamp;pressure;altitude;pressure_sealevel;temperature;humidity
10470;BME280;5282;47.052;15.458;2022-07-22T00:00:13;97694.97;;;24.08;60.05
10470;BME280;5282;47.052;15.458;2022-07-22T00:02:40;97698.31;;;24.10;59.98
10470;BME280;5282;47.052;15.458;2022-07-22T00:05:08;97694.41;;;24.06;60.70
10470;BME280;5282;47.052;15.458;2022-07-22T00:07:35;97692.06;;;23.98;62.02
10470;BME280;5282;47.052;15.458;2022-07-22T00:10:05;97690.88;;;23.94;61.55
10470;BME280;5282;47.052;15.458;2022-07-22T00:12:33;97688.88;;;23.72;62.63
10470;BME280;5282;47.052;15.458;2022-07-22T00:15:00;97687.91;;;23.78;62.40
10470;BME280;5282;47.052;15.458;2022-07-22T00:17:27;97696.38;;;23.77;62.48
10470;BME280;5282;47.052;15.458;2022-07-22T00:19:53;97709.56;;;23.75;63.02
10470;BME280;5282;47.052;15.458;2022-07-22T00:22:20;97706.69;;;23.69;64.42
10470;BME280;5282;47.052;15.458;2022-07-22T00:24:47;97703.84;;;23.47;64.86
10470;BME280;5282;47.052;15.458;2022-07-22T00:27:15;97696.34;;;23.42;66.03
10470;BME280;5282;47.052;15.458;2022-07-22T00:29:42;97690.09;;;23.47;65.60
10470;BME280;5282;47.052;15.458;2022-07-22T00:32:09;97692.91;;;23.35;65.81
10470;BME280;5282;47.052;15.458;2022-07-22T00:34:36;97700.75;;;23.15;66.46
10470;BME280;5282;47.052;15.458;2022-07-22T00:37:05;97700.63;;;23.21;67.07
10470;BME280;5282;47.052;15.458;2022-07-22T00:39:32;97693.78;;;22.95;69.37
10470;BME280;5282;47.052;15.458;2022-07-22T00:41:59;97692.31;;;22.52;71.40
10470;BME280;5282;47.052;15.458;2022-07-22T00:44:28;97691.38;;;22.58;72.46
10470;BME280;5282;47.052;15.458;2022-07-22T00:46:55;97701.03;;;22.37;73.06
10470;BME280;5282;47.052;15.458;2022-07-22T00:49:21;97693.63;;;22.25;73.83
10470;BME280;5282;47.052;15.458;2022-07-22T00:51:48;97700.44;;;22.11;74.54
10470;BME280;5282;47.052;15.458;2022-07-22T00:54:15;97697.56;;;22.17;73.74
10470;BME280;5282;47.052;15.458;2022-07-22T00:56:42;97695.44;;;22.08;74.49
10470;BME280;5282;47.052;15.458;2022-07-22T00:59:11;97701.38;;;21.93;76.30
10470;BME280;5282;47.052;15.458;2022-07-22T01:01:39;97699.69;;;21.92;76.01
10470;BME280;5282;47.052;15.458;2022-07-22T01:04:06;97698.53;;;22.11;75.14
10470;BME280;5282;47.052;15.458;2022-07-22T01:06:33;97700.31;;;22.17;75.68
10470;BME280;5282;47.052;15.458;2022-07-22T01:09:00;97707.81;;;22.34;72.74
10470;BME280;5282;47.052;15.458;2022-07-22T01:11:27;97700.53;;;22.40;72.08
10470;BME280;5282;47.052;15.458;2022-07-22T01:13:55;97700.09;;;22.43;70.98
10470;BME280;5282;47.052;15.458;2022-07-22T01:16:23;97698.31;;;22.48;71.13
10470;BME280;5282;47.052;15.458;2022-07-22T01:18:52;97706.28;;;22.50;70.96
10470;BME280;5282;47.052;15.458;2022-07-22T01:21:20;97701.63;;;22.50;69.78
10470;BME280;5282;47.052;15.458;2022-07-22T01:23:50;97705.94;;;22.46;70.11
10470;BME280;5282;47.052;15.458;2022-07-22T01:26:19;97701.53;;;22.45;69.62
10470;BME280;5282;47.052;15.458;2022-07-22T01:28:46;97700.19;;;22.36;70.16
10470;BME280;5282;47.052;15.458;2022-07-22T01:31:13;97704.25;;;22.22;70.87
10470;BME280;5282;47.052;15.458;2022-07-22T01:33:40;97698.78;;;22.22;71.76
10470;BME280;5282;47.052;15.458;2022-07-22T01:36:08;97697.09;;;22.21;72.09
10470;BME280;5282;47.052;15.458;2022-07-22T01:38:37;97701.16;;;22.06;72.45
10470;BME280;5282;47.052;15.458;2022-07-22T01:41:04;97696.50;;;22.07;72.82
10470;BME280;5282;47.052;15.458;2022-07-22T01:43:31;97700.56;;;22.16;71.54
10470;BME280;5282;47.052;15.458;2022-07-22T01:46:02;97704.72;;;22.07;71.08
10470;BME280;5282;47.052;15.458;2022-07-22T01:48:29;97708.66;;;22.11;70.76
10470;BME280;5282;47.052;15.458;2022-07-22T01:50:56;97708.53;;;22.06;71.78
10470;BME280;5282;47.052;15.458;2022-07-22T01:53:23;97712.13;;;21.94;72.04
10470;BME280;5282;47.052;15.458;2022-07-22T01:55:51;97708.75;;;21.80;72.42
10470;BME280;5282;47.052;15.458;2022-07-22T01:58:19;97708.88;;;21.73;72.99
10470;BME280;5282;47.052;15.458;2022-07-22T02:00:47;97711.97;;;21.77;73.72
10470;BME280;5282;47.052;15.458;2022-07-22T02:03:15;97716.59;;;21.65;74.41
10470;BME280;5282;47.052;15.458;2022-07-22T02:05:42;97717.78;;;21.69;74.29
10470;BME280;5282;47.052;15.458;2022-07-22T02:08:10;97716.22;;;21.61;74.65
10470;BME280;5282;47.052;15.458;2022-07-22T02:10:38;97714.75;;;21.58;74.50
10470;BME280;5282;47.052;15.458;2022-07-22T02:13:06;97705.84;;;21.63;75.13
10470;BME280;5282;47.052;15.458;2022-07-22T02:15:33;97710.16;;;21.59;75.40
10470;BME280;5282;47.052;15.458;2022-07-22T02:18:00;97709.97;;;21.54;75.46
10470;BME280;5282;47.052;15.458;2022-07-22T02:20:27;97709.25;;;21.58;75.34
10470;BME280;5282;47.052;15.458;2022-07-22T02:22:56;97716.50;;;21.71;74.94
10470;BME280;5282;47.052;15.458;2022-07-22T02:25:23;97721.59;;;21.68;75.52
10470;BME280;5282;47.052;15.458;2022-07-22T02:27:49;97722.06;;;21.65;75.77
10470;BME280;5282;47.052;15.458;2022-07-22T02:30:17;97724.19;;;21.63;76.75
10470;BME280;5282;47.052;15.458;2022-07-22T02:32:44;97722.97;;;21.58;76.95
10470;BME280;5282;47.052;15.458;2022-07-22T02:35:11;97724.97;;;21.51;77.72
10470;BME280;5282;47.052;15.458;2022-07-22T02:37:38;97730.78;;;21.43;78.48
10470;BME280;5282;47.052;15.458;2022-07-22T02:40:07;97724.56;;;21.36;78.97
10470;BME280;5282;47.052;15.458;2022-07-22T02:42:34;97726.41;;;21.23;80.65
10470;BME280;5282;47.052;15.458;2022-07-22T02:45:02;97729.66;;;21.32;80.03
10470;BME280;5282;47.052;15.458;2022-07-22T02:47:31;97725.34;;;21.24;79.65
10470;BME280;5282;47.052;15.458;2022-07-22T02:49:58;97720.66;;;21.13;77.56
10470;BME280;5282;47.052;15.458;2022-07-22T02:52:25;97732.38;;;21.20;77.84
10470;BME280;5282;47.052;15.458;2022-07-22T02:54:52;97733.75;;;21.11;77.93
10470;BME280;5282;47.052;15.458;2022-07-22T02:57:19;97730.53;;;21.14;77.18
10470;BME280;5282;47.052;15.458;2022-07-22T02:59:45;97727.53;;;21.04;78.03
10470;BME280;5282;47.052;15.458;2022-07-22T03:02:12;97729.16;;;20.93;79.30
10470;BME280;5282;47.052;15.458;2022-07-22T03:04:40;97724.56;;;20.68;82.19
10470;BME280;5282;47.052;15.458;2022-07-22T03:07:07;97734.66;;;20.68;82.80
10470;BME280;5282;47.052;15.458;2022-07-22T03:09:34;97736.09;;;20.52;84.60
10470;BME280;5282;47.052;15.458;2022-07-22T03:12:06;97731.88;;;20.74;83.11
10470;BME280;5282;47.052;15.458;2022-07-22T03:14:37;97739.69;;;20.71;83.48
10470;BME280;5282;47.052;15.458;2022-07-22T03:17:10;97740.88;;;20.82;83.09
10470;BME280;5282;47.052;15.458;2022-07-22T03:19:42;97756.53;;;20.49;86.23
10470;BME280;5282;47.052;15.458;2022-07-22T03:22:11;97751.19;;;20.35;86.56
10470;BME280;5282;47.052;15.458;2022-07-22T03:24:41;97760.31;;;20.29;87.57
10470;BME280;5282;47.052;15.458;2022-07-22T03:27:17;97758.03;;;20.45;86.61
10470;BME280;5282;47.052;15.458;2022-07-22T03:29:49;97757.91;;;20.58;85.71
10470;BME280;5282;47.052;15.458;2022-07-22T03:32:16;97761.63;;;20.64;85.39
10470;BME280;5282;47.052;15.458;2022-07-22T03:34:49;97764.75;;;20.68;85.30
10470;BME280;5282;47.052;15.458;2022-07-22T03:37:19;97764.25;;;20.59;85.91
10470;BME280;5282;47.052;15.458;2022-07-22T03:39:47;97758.44;;;20.48;85.28
10470;BME280;5282;47.052;15.458;2022-07-22T03:42:14;97763.59;;;20.38;86.91
10470;BME280;5282;47.052;15.458;2022-07-22T03:44:41;97756.34;;;20.25;89.00
10470;BME280;5282;47.052;15.458;2022-07-22T03:47:08;97776.91;;;20.09;90.49
10470;BME280;5282;47.052;15.458;2022-07-22T03:49:35;97776.72;;;20.29;89.24
10470;BME280;5282;47.052;15.458;2022-07-22T03:52:03;97775.06;;;20.47;87.82
10470;BME280;5282;47.052;15.458;2022-07-22T03:54:30;97777.06;;;20.58;87.40
10470;BME280;5282;47.052;15.458;2022-07-22T03:56:57;97778.19;;;20.50;88.74
10470;BME280;5282;47.052;15.458;2022-07-22T03:59:24;97782.28;;;20.60;87.80
10470;BME280;5282;47.052;15.458;2022-07-22T04:01:51;97777.44;;;20.62;88.32
10470;BME280;5282;47.052;15.458;2022-07-22T04:04:18;97786.13;;;20.59;88.39
10470;BME280;5282;47.052;15.458;2022-07-22T04:06:45;97786.13;;;20.59;88.68
10470;BME280;5282;47.052;15.458;2022-07-22T04:09:13;97778.34;;;20.56;89.42
10470;BME280;5282;47.052;15.458;2022-07-22T04:11:40;97783.81;;;20.56;90.00
10470;BME280;5282;47.052;15.458;2022-07-22T04:14:07;97784.66;;;20.56;90.09
10470;BME280;5282;47.052;15.458;2022-07-22T04:16:34;97787.50;;;20.43;91.05
10470;BME280;5282;47.052;15.458;2022-07-22T04:19:01;97789.19;;;20.44;90.70
10470;BME280;5282;47.052;15.458;2022-07-22T04:21:28;97796.38;;;20.63;90.03
10470;BME280;5282;47.052;15.458;2022-07-22T04:23:55;97798.19;;;20.70;89.77
10470;BME280;5282;47.052;15.458;2022-07-22T04:26:23;97799.63;;;20.54;89.39
10470;BME280;5282;47.052;15.458;2022-07-22T04:28:52;97810.28;;;20.37;90.29
10470;BME280;5282;47.052;15.458;2022-07-22T04:31:19;97799.84;;;20.52;89.22
10470;BME280;5282;47.052;15.458;2022-07-22T04:33:46;97803.78;;;20.56;88.85
10470;BME280;5282;47.052;15.458;2022-07-22T04:36:13;97808.03;;;20.77;87.46
10470;BME280;5282;47.052;15.458;2022-07-22T04:38:39;97803.69;;;20.88;88.01
10470;BME280;5282;47.052;15.458;2022-07-22T04:41:07;97809.50;;;20.99;87.17
10470;BME280;5282;47.052;15.458;2022-07-22T04:43:35;97804.59;;;21.01;86.24
10470;BME280;5282;47.052;15.458;2022-07-22T04:46:02;97806.53;;;20.82;85.69
10470;BME280;5282;47.052;15.458;2022-07-22T04:48:29;97802.25;;;20.86;84.95
10470;BME280;5282;47.052;15.458;2022-07-22T04:50:58;97802.06;;;20.87;86.58
10470;BME280;5282;47.052;15.458;2022-07-22T04:53:25;97794.22;;;20.91;87.79
10470;BME280;5282;47.052;15.458;2022-07-22T04:55:52;97793.75;;;21.13;86.10
10470;BME280;5282;47.052;15.458;2022-07-22T04:58:21;97800.03;;;21.32;85.51
10470;BME280;5282;47.052;15.458;2022-07-22T05:00:49;97797.59;;;21.42;85.75
10470;BME280;5282;47.052;15.458;2022-07-22T05:03:16;97798.94;;;21.51;85.89
10470;BME280;5282;47.052;15.458;2022-07-22T05:05:44;97802.03;;;21.55;86.10
10470;BME280;5282;47.052;15.458;2022-07-22T05:08:11;97799.22;;;21.62;85.74
10470;BME280;5282;47.052;15.458;2022-07-22T05:10:38;97795.88;;;21.60;86.90
10470;BME280;5282;47.052;15.458;2022-07-22T05:13:05;97805.44;;;21.69;86.50
10470;BME280;5282;47.052;15.458;2022-07-22T05:15:31;97803.56;;;21.81;85.95
10470;BME280;5282;47.052;15.458;2022-07-22T05:18:00;97806.00;;;21.90;88.10
10470;BME280;5282;47.052;15.458;2022-07-22T05:22:54;97803.03;;;22.03;89.65
10470;BME280;5282;47.052;15.458;2022-07-22T05:25:20;97800.56;;;22.13;90.92
10470;BME280;5282;47.052;15.458;2022-07-22T05:27:51;97803.31;;;22.25;89.88
10470;BME280;5282;47.052;15.458;2022-07-22T05:30:18;97802.25;;;22.38;90.29
10470;BME280;5282;47.052;15.458;2022-07-22T05:32:45;97804.09;;;22.44;90.39
10470;BME280;5282;47.052;15.458;2022-07-22T05:35:13;97799.19;;;22.58;89.24
10470;BME280;5282;47.052;15.458;2022-07-22T05:37:40;97802.50;;;22.72;89.14
10470;BME280;5282;47.052;15.458;2022-07-22T05:40:08;97801.94;;;22.70;89.97
10470;BME280;5282;47.052;15.458;2022-07-22T05:42:35;97808.00;;;22.72;90.74
10470;BME280;5282;47.052;15.458;2022-07-22T05:45:02;97804.91;;;22.80;90.76
10470;BME280;5282;47.052;15.458;2022-07-22T05:47:29;97804.66;;;22.82;89.53
10470;BME280;5282;47.052;15.458;2022-07-22T05:49:57;97802.41;;;22.91;88.69
10470;BME280;5282;47.052;15.458;2022-07-22T05:52:25;97807.50;;;22.99;87.86
10470;BME280;5282;47.052;15.458;2022-07-22T05:54:52;97801.63;;;23.07;87.22
10470;BME280;5282;47.052;15.458;2022-07-22T05:57:18;97806.75;;;23.16;86.41
10470;BME280;5282;47.052;15.458;2022-07-22T05:59:46;97805.69;;;23.29;86.00
10470;BME280;5282;47.052;15.458;2022-07-22T06:02:13;97806.88;;;23.33;85.55
10470;BME280;5282;47.052;15.458;2022-07-22T06:04:39;97801.81;;;23.41;85.08
10470;BME280;5282;47.052;15.458;2022-07-22T06:07:06;97801.44;;;23.50;85.30
10470;BME280;5282;47.052;15.458;2022-07-22T06:09:34;97809.28;;;23.58;84.84
10470;BME280;5282;47.052;15.458;2022-07-22T06:12:01;97809.13;;;23.65;85.05
10470;BME280;5282;47.052;15.458;2022-07-22T06:14:28;97807.91;;;23.72;83.81
10470;BME280;5282;47.052;15.458;2022-07-22T06:16:55;97813.06;;;23.98;82.24
10470;BME280;5282;47.052;15.458;2022-07-22T06:19:22;97812.91;;;24.05;82.02
10470;BME280;5282;47.052;15.458;2022-07-22T06:21:50;97809.66;;;24.08;80.84
10470;BME280;5282;47.052;15.458;2022-07-22T06:24:17;97811.34;;;24.09;80.40
10470;BME280;5282;47.052;15.458;2022-07-22T06:26:45;97815.00;;;24.14;79.23
10470;BME280;5282;47.052;15.458;2022-07-22T06:29:12;97817.59;;;24.21;79.20
10470;BME280;5282;47.052;15.458;2022-07-22T06:31:38;97816.69;;;24.32;78.31
10470;BME280;5282;47.052;15.458;2022-07-22T06:34:05;97807.69;;;24.37;78.33
10470;BME280;5282;47.052;15.458;2022-07-22T06:36:32;97814.66;;;24.45;77.75
10470;BME280;5282;47.052;15.458;2022-07-22T06:38:59;97810.75;;;24.58;77.12
10470;BME280;5282;47.052;15.458;2022-07-22T06:41:26;97813.75;;;24.73;76.70
10470;BME280;5282;47.052;15.458;2022-07-22T06:43:55;97808.56;;;24.77;76.29
10470;BME280;5282;47.052;15.458;2022-07-22T06:46:21;97806.88;;;24.93;74.86
10470;BME280;5282;47.052;15.458;2022-07-22T06:48:49;97808.16;;;25.07;73.89
10470;BME280;5282;47.052;15.458;2022-07-22T06:51:18;97804.47;;;25.19;69.83
10470;BME280;5282;47.052;15.458;2022-07-22T06:53:45;97811.41;;;25.26;69.93
10470;BME280;5282;47.052;15.458;2022-07-22T06:56:12;97812.59;;;25.31;69.15
10470;BME280;5282;47.052;15.458;2022-07-22T06:58:39;97809.81;;;25.31;66.72
10470;BME280;5282;47.052;15.458;2022-07-22T07:01:07;97809.50;;;25.49;63.08
10470;BME280;5282;47.052;15.458;2022-07-22T07:03:34;97807.66;;;25.55;62.48
10470;BME280;5282;47.052;15.458;2022-07-22T07:06:01;97821.31;;;25.67;62.00
10470;BME280;5282;47.052;15.458;2022-07-22T07:08:29;97814.28;;;25.81;61.22
10470;BME280;5282;47.052;15.458;2022-07-22T07:10:56;97815.56;;;26.01;58.61
10470;BME280;5282;47.052;15.458;2022-07-22T07:13:23;97811.50;;;26.09;59.94
10470;BME280;5282;47.052;15.458;2022-07-22T07:15:50;97813.69;;;26.07;58.38
10470;BME280;5282;47.052;15.458;2022-07-22T07:18:18;97809.53;;;26.04;59.41
10470;BME280;5282;47.052;15.458;2022-07-22T07:20:45;97810.19;;;26.11;56.80
10470;BME280;5282;47.052;15.458;2022-07-22T07:23:12;97811.38;;;26.21;56.83
10470;BME280;5282;47.052;15.458;2022-07-22T07:25:39;97806.50;;;26.33;57.77
10470;BME280;5282;47.052;15.458;2022-07-22T07:28:06;97807.44;;;26.49;56.37
10470;BME280;5282;47.052;15.458;2022-07-22T07:30:33;97812.78;;;26.61;56.69
10470;BME280;5282;47.052;15.458;2022-07-22T07:33:00;97810.13;;;26.76;57.58
10470;BME280;5282;47.052;15.458;2022-07-22T07:35:29;97807.53;;;26.97;56.91
10470;BME280;5282;47.052;15.458;2022-07-22T07:37:56;97803.97;;;27.07;55.68
10470;BME280;5282;47.052;15.458;2022-07-22T07:40:23;97804.84;;;27.18;54.81
10470;BME280;5282;47.052;15.458;2022-07-22T07:42:49;97799.91;;;27.20;52.21
10470;BME280;5282;47.052;15.458;2022-07-22T07:45:16;97804.31;;;27.21;53.56
10470;BME280;5282;47.052;15.458;2022-07-22T07:47:43;97804.94;;;27.38;52.96
10470;BME280;5282;47.052;15.458;2022-07-22T07:50:11;97796.44;;;27.50;49.87
10470;BME280;5282;47.052;15.458;2022-07-22T07:52:41;97807.22;;;27.52;50.00
10470;BME280;5282;47.052;15.458;2022-07-22T07:55:08;97803.06;;;27.44;51.40
10470;BME280;5282;47.052;15.458;2022-07-22T07:57:36;97801.66;;;27.47;50.49
10470;BME280;5282;47.052;15.458;2022-07-22T08:00:06;97801.72;;;27.62;50.13
10470;BME280;5282;47.052;15.458;2022-07-22T08:02:34;97807.84;;;27.75;49.82
10470;BME280;5282;47.052;15.458;2022-07-22T08:05:00;97801.72;;;27.67;51.00
10470;BME280;5282;47.052;15.458;2022-07-22T08:07:28;97804.81;;;27.97;51.03
10470;BME280;5282;47.052;15.458;2022-07-22T08:09:56;97804.59;;;28.19;49.33
10470;BME280;5282;47.052;15.458;2022-07-22T08:12:23;97799.88;;;28.04;49.21
10470;BME280;5282;47.052;15.458;2022-07-22T08:14:50;97806.81;;;28.17;46.48
10470;BME280;5282;47.052;15.458;2022-07-22T08:17:17;97813.47;;;28.37;47.24
10470;BME280;5282;47.052;15.458;2022-07-22T08:19:44;97805.97;;;28.32;47.50
10470;BME280;5282;47.052;15.458;2022-07-22T08:22:10;97811.22;;;28.08;48.63
10470;BME280;5282;47.052;15.458;2022-07-22T08:24:37;97799.34;;;28.28;48.91
10470;BME280;5282;47.052;15.458;2022-07-22T08:27:08;97807.38;;;28.50;47.61
10470;BME280;5282;47.052;15.458;2022-07-22T08:29:36;97810.69;;;28.68;47.39
10470;BME280;5282;47.052;15.458;2022-07-22T08:32:03;97810.69;;;28.62;46.76
10470;BME280;5282;47.052;15.458;2022-07-22T08:34:30;97807.34;;;28.60;47.36
10470;BME280;5282;47.052;15.458;2022-07-22T08:36:57;97814.81;;;28.70;47.02
10470;BME280;5282;47.052;15.458;2022-07-22T08:39:23;97809.28;;;28.96;45.71
10470;BME280;5282;47.052;15.458;2022-07-22T08:41:50;97810.56;;;29.19;43.33
10470;BME280;5282;47.052;15.458;2022-07-22T08:44:19;97809.75;;;29.14;43.35
10470;BME280;5282;47.052;15.458;2022-07-22T08:46:46;97811.38;;;29.35;42.94
10470;BME280;5282;47.052;15.458;2022-07-22T08:49:13;97804.94;;;29.50;42.62
10470;BME280;5282;47.052;15.458;2022-07-22T08:51:40;97806.63;;;29.46;42.22
10470;BME280;5282;47.052;15.458;2022-07-22T08:54:07;97800.25;;;29.40;41.74
10470;BME280;5282;47.052;15.458;2022-07-22T08:56:34;97804.41;;;29.48;41.78
10470;BME280;5282;47.052;15.458;2022-07-22T08:59:03;97805.38;;;29.68;42.78
10470;BME280;5282;47.052;15.458;2022-07-22T09:01:32;97803.78;;;29.57;41.65
10470;BME280;5282;47.052;15.458;2022-07-22T09:03:59;97807.59;;;29.71;42.07
10470;BME280;5282;47.052;15.458;2022-07-22T09:06:27;97798.59;;;29.90;41.84
10470;BME280;5282;47.052;15.458;2022-07-22T09:09:00;97798.84;;;29.93;41.74
10470;BME280;5282;47.052;15.458;2022-07-22T09:11:29;97798.47;;;30.10;41.58
10470;BME280;5282;47.052;15.458;2022-07-22T09:13:57;97797.25;;;30.27;41.58
10470;BME280;5282;47.052;15.458;2022-07-22T09:16:43;97796.25;;;30.47;40.92
10470;BME280;5282;47.052;15.458;2022-07-22T09:19:11;97795.94;;;30.54;40.88
10470;BME280;5282;47.052;15.458;2022-07-22T09:21:40;97801.72;;;30.57;40.15
10470;BME280;5282;47.052;15.458;2022-07-22T09:24:08;97802.03;;;30.16;41.71
10470;BME280;5282;47.052;15.458;2022-07-22T09:26:37;97790.38;;;30.54;40.71
10470;BME280;5282;47.052;15.458;2022-07-22T09:29:05;97787.22;;;30.31;41.24
10470;BME280;5282;47.052;15.458;2022-07-22T09:31:34;97792.88;;;30.55;41.12
10470;BME280;5282;47.052;15.458;2022-07-22T09:34:04;97792.00;;;30.84;40.11
10470;BME280;5282;47.052;15.458;2022-07-22T09:36:30;97791.63;;;30.96;40.55
10470;BME280;5282;47.052;15.458;2022-07-22T09:38:57;97791.50;;;30.82;39.30
10470;BME280;5282;47.052;15.458;2022-07-22T09:41:24;97787.94;;;31.01;39.71
10470;BME280;5282;47.052;15.458;2022-07-22T09:43:51;97786.63;;;30.93;39.01
10470;BME280;5282;47.052;15.458;2022-07-22T09:46:32;97777.31;;;31.32;38.38
10470;BME280;5282;47.052;15.458;2022-07-22T09:49:00;97778.13;;;31.33;37.89
10470;BME280;5282;47.052;15.458;2022-07-22T09:51:29;97781.91;;;31.42;38.09
10470;BME280;5282;47.052;15.458;2022-07-22T09:53:59;97783.03;;;31.60;37.92
10470;BME280;5282;47.052;15.458;2022-07-22T09:56:27;97776.19;;;31.77;37.86
10470;BME280;5282;47.052;15.458;2022-07-22T09:58:55;97777.91;;;31.92;37.04
10470;BME280;5282;47.052;15.458;2022-07-22T10:01:22;97769.38;;;31.45;37.85
10470;BME280;5282;47.052;15.458;2022-07-22T10:03:51;97771.75;;;31.76;37.38
10470;BME280;5282;47.052;15.458;2022-07-22T10:06:20;97769.97;;;31.99;37.84
10470;BME280;5282;47.052;15.458;2022-07-22T10:08:50;97767.97;;;31.85;37.33
10470;BME280;5282;47.052;15.458;2022-07-22T10:11:17;97767.19;;;31.61;37.61
10470;BME280;5282;47.052;15.458;2022-07-22T10:13:45;97760.81;;;31.79;37.27
10470;BME280;5282;47.052;15.458;2022-07-22T10:16:12;97769.81;;;32.28;37.22
10470;BME280;5282;47.052;15.458;2022-07-22T10:18:44;97758.94;;;32.46;35.49
10470;BME280;5282;47.052;15.458;2022-07-22T10:21:12;97756.13;;;32.13;34.74
10470;BME280;5282;47.052;15.458;2022-07-22T10:24:08;97760.28;;;32.62;33.71
10470;BME280;5282;47.052;15.458;2022-07-22T10:26:49;97758.47;;;32.72;35.07
10470;BME280;5282;47.052;15.458;2022-07-22T10:29:24;97756.16;;;32.60;35.87
10470;BME280;5282;47.052;15.458;2022-07-22T10:32:21;97758.00;;;32.18;34.35
10470;BME280;5282;47.052;15.458;2022-07-22T10:35:20;97758.28;;;32.35;33.79
10470;BME280;5282;47.052;15.458;2022-07-22T10:37:49;97749.81;;;32.07;34.55
10470;BME280;5282;47.052;15.458;2022-07-22T10:40:20;97744.81;;;32.56;34.78
10470;BME280;5282;47.052;15.458;2022-07-22T10:43:06;97750.75;;;32.97;33.92
10470;BME280;5282;47.052;15.458;2022-07-22T10:45:37;97749.13;;;33.10;33.71
10470;BME280;5282;47.052;15.458;2022-07-22T10:48:05;97747.13;;;33.10;34.23
10470;BME280;5282;47.052;15.458;2022-07-22T10:50:52;97734.53;;;33.41;34.47
10470;BME280;5282;47.052;15.458;2022-07-22T10:53:24;97733.19;;;33.75;32.81
10470;BME280;5282;47.052;15.458;2022-07-22T10:56:07;97740.63;;;33.29;33.13
10470;BME280;5282;47.052;15.458;2022-07-22T10:58:41;97731.81;;;32.66;33.80
10470;BME280;5282;47.052;15.458;2022-07-22T11:01:09;97726.44;;;32.55;33.94
10470;BME280;5282;47.052;15.458;2022-07-22T11:03:38;97728.47;;;33.11;34.47
10470;BME280;5282;47.052;15.458;2022-07-22T11:06:20;97732.16;;;33.34;32.22
10470;BME280;5282;47.052;15.458;2022-07-22T11:08:50;97725.53;;;33.16;32.27
10470;BME280;5282;47.052;15.458;2022-07-22T11:11:31;97735.03;;;33.15;32.31
10470;BME280;5282;47.052;15.458;2022-07-22T11:13:59;97725.88;;;33.14;32.41
10470;BME280;5282;47.052;15.458;2022-07-22T11:16:27;97724.88;;;33.61;32.46
10470;BME280;5282;47.052;15.458;2022-07-22T11:18:57;97725.41;;;33.86;30.71
10470;BME280;5282;47.052;15.458;2022-07-22T11:21:26;97720.97;;;33.84;32.15
10470;BME280;5282;47.052;15.458;2022-07-22T11:23:54;97717.00;;;34.22;29.50
10470;BME280;5282;47.052;15.458;2022-07-22T11:26:25;97724.06;;;34.28;29.55
10470;BME280;5282;47.052;15.458;2022-07-22T11:28:52;97709.88;;;34.39;29.54
10470;BME280;5282;47.052;15.458;2022-07-22T11:31:19;97712.19;;;33.91;31.17
10470;BME280;5282;47.052;15.458;2022-07-22T11:33:47;97708.78;;;34.49;30.24
10470;BME280;5282;47.052;15.458;2022-07-22T11:36:14;97698.97;;;34.60;28.78
10470;BME280;5282;47.052;15.458;2022-07-22T11:38:46;97701.03;;;34.86;30.37
10470;BME280;5282;47.052;15.458;2022-07-22T11:41:15;97696.34;;;35.04;29.10
10470;BME280;5282;47.052;15.458;2022-07-22T11:43:44;97699.53;;;35.20;28.73
10470;BME280;5282;47.052;15.458;2022-07-22T11:46:11;97690.81;;;35.30;27.76
10470;BME280;5282;47.052;15.458;2022-07-22T11:48:39;97695.31;;;35.49;27.22
10470;BME280;5282;47.052;15.458;2022-07-22T11:51:07;97693.78;;;35.25;27.68
10470;BME280;5282;47.052;15.458;2022-07-22T11:53:36;97695.31;;;35.49;27.92
10470;BME280;5282;47.052;15.458;2022-07-22T11:56:04;97689.94;;;35.03;28.13
10470;BME280;5282;47.052;15.458;2022-07-22T11:58:37;97679.69;;;35.48;28.74
10470;BME280;5282;47.052;15.458;2022-07-22T12:01:06;97681.41;;;35.09;28.31
10470;BME280;5282;47.052;15.458;2022-07-22T12:03:33;97675.59;;;34.96;29.32
10470;BME280;5282;47.052;15.458;2022-07-22T12:06:01;97667.28;;;35.31;29.23
10470;BME280;5282;47.052;15.458;2022-07-22T12:08:28;97664.94;;;34.98;29.12
10470;BME280;5282;47.052;15.458;2022-07-22T12:10:56;97660.03;;;35.39;29.26
10470;BME280;5282;47.052;15.458;2022-07-22T12:13:28;97659.59;;;35.55;29.27
10470;BME280;5282;47.052;15.458;2022-07-22T12:15:56;97661.06;;;35.70;28.15
10470;BME280;5282;47.052;15.458;2022-07-22T12:18:26;97659.41;;;35.68;28.88
10470;BME280;5282;47.052;15.458;2022-07-22T12:20:55;97660.56;;;35.94;29.30
10470;BME280;5282;47.052;15.458;2022-07-22T12:23:25;97649.19;;;35.90;29.26
10470;BME280;5282;47.052;15.458;2022-07-22T12:25:54;97652.97;;;36.03;29.52
10470;BME280;5282;47.052;15.458;2022-07-22T12:28:22;97645.38;;;35.25;29.82
10470;BME280;5282;47.052;15.458;2022-07-22T12:30:50;97643.06;;;35.00;30.09
10470;BME280;5282;47.052;15.458;2022-07-22T12:33:18;97638.78;;;35.91;30.43
10470;BME280;5282;47.052;15.458;2022-07-22T12:36:00;97636.41;;;36.28;28.89
10470;BME280;5282;47.052;15.458;2022-07-22T12:38:27;97638.34;;;36.45;28.61
10470;BME280;5282;47.052;15.458;2022-07-22T12:40:54;97626.78;;;35.90;28.89
10470;BME280;5282;47.052;15.458;2022-07-22T12:43:25;97630.69;;;36.07;29.24
10470;BME280;5282;47.052;15.458;2022-07-22T12:45:52;97630.38;;;36.17;26.94
10470;BME280;5282;47.052;15.458;2022-07-22T12:48:27;97620.63;;;36.14;28.28
10470;BME280;5282;47.052;15.458;2022-07-22T12:50:56;97633.97;;;36.26;28.72
10470;BME280;5282;47.052;15.458;2022-07-22T12:53:26;97623.78;;;36.61;28.65
10470;BME280;5282;47.052;15.458;2022-07-22T12:55:55;97628.25;;;36.62;28.45
10470;BME280;5282;47.052;15.458;2022-07-22T12:58:25;97623.75;;;36.69;29.27
10470;BME280;5282;47.052;15.458;2022-07-22T13:00:54;97618.88;;;35.92;29.53
10470;BME280;5282;47.052;15.458;2022-07-22T13:03:22;97615.44;;;36.43;29.91
10470;BME280;5282;47.052;15.458;2022-07-22T13:05:53;97611.56;;;36.18;29.91
10470;BME280;5282;47.052;15.458;2022-07-22T13:08:20;97609.63;;;36.57;28.55